sensor_id;sensor_type;location;lat;lon;timestamp;P1;durP1;ratioP1;P2;durP2;ratioP2
15240;SDS011;7723;52.170;9.978;2023-04-25T00:00:02;9.63;;;3.20;;
15240;SDS011;7723;52.170;9.978;2023-04-25T00:02:32;6.47;;;3.20;;
15240;SDS011;7723;52.170;9.978;2023-04-25T00:04:59;7.90;;;3.20;;
15240;SDS011;7723;52.170;9.978;2023-04-25T00:07:28;5.07;;;2.50;;
15240;SDS011;7723;52.170;9.978;2023-04-25T00:09:56;6.35;;;2.78;;
15240;SDS011;7723;52.170;9.978;2023-04-25T00:12:23;10.68;;;4.45;;
15240;SDS011;7723;52.170;9.978;2023-04-25T00:14:51;8.27;;;3.13;;
15240;SDS011;7723;52.170;9.978;2023-04-25T00:17:18;6.90;;;3.45;;
15240;SDS011;7723;52.170;9.978;2023-04-25T00:19:47;6.65;;;2.92;;
15240;SDS011;7723;52.170;9.978;2023-04-25T00:22:14;5.85;;;2.83;;
15240;SDS011;7723;52.170;9.978;2023-04-25T00:24:42;9.27;;;3.38;;
15240;SDS011;7723;52.170;9.978;2023-04-25T00:27:09;6.93;;;3.10;;
15240;SDS011;7723;52.170;9.978;2023-04-25T00:29:37;6.40;;;3.00;;
15240;SDS011;7723;52.170;9.978;2023-04-25T00:32:05;7.75;;;3.53;;
15240;SDS011;7723;52.170;9.978;2023-04-25T00:34:32;5.55;;;3.40;;
15240;SDS011;7723;52.170;9.978;2023-04-25T00:36:59;9.70;;;4.55;;
15240;SDS011;7723;52.170;9.978;2023-04-25T00:39:27;10.05;;;4.20;;
15240;SDS011;7723;52.170;9.978;2023-04-25T00:41:54;7.13;;;3.53;;
15240;SDS011;7723;52.170;9.978;2023-04-25T00:44:22;9.75;;;3.33;;
15240;SDS011;7723;52.170;9.978;2023-04-25T00:46:51;8.23;;;3.65;;
15240;SDS011;7723;52.170;9.978;2023-04-25T00:49:21;7.80;;;3.65;;
15240;SDS011;7723;52.170;9.978;2023-04-25T00:51:48;10.00;;;4.90;;
15240;SDS011;7723;52.170;9.978;2023-04-25T00:54:15;7.55;;;3.40;;
15240;SDS011;7723;52.170;9.978;2023-04-25T00:56:43;7.82;;;4.18;;
15240;SDS011;7723;52.170;9.978;2023-04-25T00:59:11;9.02;;;4.97;;
15240;SDS011;7723;52.170;9.978;2023-04-25T01:01:39;9.13;;;3.95;;
15240;SDS011;7723;52.170;9.978;2023-04-25T01:04:08;10.40;;;4.47;;
15240;SDS011;7723;52.170;9.978;2023-04-25T01:06:37;9.50;;;4.32;;
15240;SDS011;7723;52.170;9.978;2023-04-25T01:09:05;8.10;;;3.78;;
15240;SDS011;7723;52.170;9.978;2023-04-25T01:11:32;8.77;;;4.22;;
15240;SDS011;7723;52.170;9.978;2023-04-25T01:13:59;13.40;;;5.18;;
15240;SDS011;7723;52.170;9.978;2023-04-25T01:16:27;11.13;;;4.70;;
15240;SDS011;7723;52.170;9.978;2023-04-25T01:18:54;6.63;;;4.32;;
15240;SDS011;7723;52.170;9.978;2023-04-25T01:21:23;8.48;;;4.25;;
15240;SDS011;7723;52.170;9.978;2023-04-25T01:23:52;8.93;;;4.57;;
15240;SDS011;7723;52.170;9.978;2023-04-25T01:26:20;9.38;;;4.78;;
15240;SDS011;7723;52.170;9.978;2023-04-25T01:28:48;8.85;;;4.22;;
15240;SDS011;7723;52.170;9.978;2023-04-25T01:31:16;9.50;;;4.68;;
15240;SDS011;7723;52.170;9.978;2023-04-25T01:33:44;11.57;;;4.72;;
15240;SDS011;7723;52.170;9.978;2023-04-25T01:36:12;10.50;;;4.32;;
15240;SDS011;7723;52.170;9.978;2023-04-25T01:38:41;12.77;;;4.45;;
15240;SDS011;7723;52.170;9.978;2023-04-25T01:41:09;12.45;;;4.57;;
15240;SDS011;7723;52.170;9.978;2023-04-25T01:43:36;9.80;;;4.30;;
15240;SDS011;7723;52.170;9.978;2023-04-25T01:46:03;11.10;;;5.25;;
15240;SDS011;7723;52.170;9.978;2023-04-25T01:48:30;9.38;;;4.35;;
15240;SDS011;7723;52.170;9.978;2023-04-25T01:50:57;11.20;;;4.75;;
15240;SDS011;7723;52.170;9.978;2023-04-25T01:53:25;13.05;;;5.03;;
15240;SDS011;7723;52.170;9.978;2023-04-25T01:55:53;8.60;;;4.82;;
15240;SDS011;7723;52.170;9.978;2023-04-25T01:58:20;8.52;;;4.30;;
15240;SDS011;7723;52.170;9.978;2023-04-25T02:00:47;7.10;;;4.10;;
15240;SDS011;7723;52.170;9.978;2023-04-25T02:03:14;9.77;;;4.95;;
15240;SDS011;7723;52.170;9.978;2023-04-25T02:05:42;10.63;;;4.75;;
15240;SDS011;7723;52.170;9.978;2023-04-25T02:08:09;10.90;;;5.40;;
15240;SDS011;7723;52.170;9.978;2023-04-25T02:10:36;9.43;;;4.50;;
15240;SDS011;7723;52.170;9.978;2023-04-25T02:13:04;12.13;;;4.68;;
15240;SDS011;7723;52.170;9.978;2023-04-25T02:15:32;16.38;;;5.07;;
15240;SDS011;7723;52.170;9.978;2023-04-25T02:17:59;9.73;;;4.70;;
15240;SDS011;7723;52.170;9.978;2023-04-25T02:20:27;17.13;;;5.22;;
15240;SDS011;7723;52.170;9.978;2023-04-25T02:22:55;13.77;;;4.97;;
15240;SDS011;7723;52.170;9.978;2023-04-25T02:25:22;11.98;;;5.20;;
15240;SDS011;7723;52.170;9.978;2023-04-25T02:27:49;9.68;;;4.60;;
15240;SDS011;7723;52.170;9.978;2023-04-25T02:30:19;12.07;;;4.88;;
15240;SDS011;7723;52.170;9.978;2023-04-25T02:32:46;10.50;;;5.32;;
15240;SDS011;7723;52.170;9.978;2023-04-25T02:35:13;13.70;;;6.68;;
15240;SDS011;7723;52.170;9.978;2023-04-25T02:37:40;8.65;;;4.68;;
15240;SDS011;7723;52.170;9.978;2023-04-25T02:40:08;12.70;;;6.25;;
15240;SDS011;7723;52.170;9.978;2023-04-25T02:42:36;7.32;;;4.97;;
15240;SDS011;7723;52.170;9.978;2023-04-25T02:45:03;8.65;;;5.03;;
15240;SDS011;7723;52.170;9.978;2023-04-25T02:47:32;13.68;;;5.35;;
15240;SDS011;7723;52.170;9.978;2023-04-25T02:49:59;10.27;;;4.88;;
15240;SDS011;7723;52.170;9.978;2023-04-25T02:52:26;12.43;;;4.82;;
15240;SDS011;7723;52.170;9.978;2023-04-25T02:54:53;12.10;;;5.15;;
15240;SDS011;7723;52.170;9.978;2023-04-25T02:57:20;10.35;;;5.13;;
15240;SDS011;7723;52.170;9.978;2023-04-25T02:59:48;9.38;;;5.05;;
15240;SDS011;7723;52.170;9.978;2023-04-25T03:02:15;9.43;;;5.18;;
15240;SDS011;7723;52.170;9.978;2023-04-25T03:04:43;8.63;;;4.45;;
15240;SDS011;7723;52.170;9.978;2023-04-25T03:07:11;8.68;;;4.78;;
15240;SDS011;7723;52.170;9.978;2023-04-25T03:09:38;9.85;;;5.15;;
15240;SDS011;7723;52.170;9.978;2023-04-25T03:12:05;9.40;;;5.45;;
15240;SDS011;7723;52.170;9.978;2023-04-25T03:14:32;7.72;;;4.45;;
15240;SDS011;7723;52.170;9.978;2023-04-25T03:16:59;7.53;;;3.45;;
15240;SDS011;7723;52.170;9.978;2023-04-25T03:19:26;9.60;;;3.63;;
15240;SDS011;7723;52.170;9.978;2023-04-25T03:21:55;8.25;;;3.47;;
15240;SDS011;7723;52.170;9.978;2023-04-25T03:24:22;12.55;;;4.35;;
15240;SDS011;7723;52.170;9.978;2023-04-25T03:26:49;10.00;;;3.97;;
15240;SDS011;7723;52.170;9.978;2023-04-25T03:29:16;7.95;;;3.25;;
15240;SDS011;7723;52.170;9.978;2023-04-25T03:31:43;10.52;;;4.25;;
15240;SDS011;7723;52.170;9.978;2023-04-25T03:34:10;9.75;;;4.40;;
15240;SDS011;7723;52.170;9.978;2023-04-25T03:36:39;11.52;;;4.15;;
15240;SDS011;7723;52.170;9.978;2023-04-25T03:39:07;7.68;;;4.00;;
15240;SDS011;7723;52.170;9.978;2023-04-25T03:41:34;7.05;;;3.03;;
15240;SDS011;7723;52.170;9.978;2023-04-25T03:44:02;9.00;;;3.83;;
15240;SDS011;7723;52.170;9.978;2023-04-25T03:46:29;13.20;;;4.05;;
15240;SDS011;7723;52.170;9.978;2023-04-25T03:48:56;12.65;;;4.70;;
15240;SDS011;7723;52.170;9.978;2023-04-25T03:51:24;8.90;;;3.63;;
15240;SDS011;7723;52.170;9.978;2023-04-25T03:53:52;10.25;;;3.55;;
15240;SDS011;7723;52.170;9.978;2023-04-25T03:56:20;9.48;;;3.40;;
15240;SDS011;7723;52.170;9.978;2023-04-25T03:58:47;7.43;;;3.08;;
15240;SDS011;7723;52.170;9.978;2023-04-25T04:01:14;9.32;;;3.80;;
15240;SDS011;7723;52.170;9.978;2023-04-25T04:03:41;16.15;;;3.92;;
15240;SDS011;7723;52.170;9.978;2023-04-25T04:06:08;11.63;;;3.88;;
15240;SDS011;7723;52.170;9.978;2023-04-25T04:08:36;10.27;;;3.00;;
15240;SDS011;7723;52.170;9.978;2023-04-25T04:11:03;17.35;;;4.05;;
15240;SDS011;7723;52.170;9.978;2023-04-25T04:13:31;9.77;;;3.47;;
15240;SDS011;7723;52.170;9.978;2023-04-25T04:15:58;8.48;;;3.22;;
15240;SDS011;7723;52.170;9.978;2023-04-25T04:18:25;11.60;;;3.45;;
15240;SDS011;7723;52.170;9.978;2023-04-25T04:20:53;8.88;;;3.85;;
15240;SDS011;7723;52.170;9.978;2023-04-25T04:23:20;10.90;;;3.65;;
15240;SDS011;7723;52.170;9.978;2023-04-25T04:25:47;10.63;;;4.28;;
15240;SDS011;7723;52.170;9.978;2023-04-25T04:28:15;14.10;;;4.70;;
15240;SDS011;7723;52.170;9.978;2023-04-25T04:30:44;7.72;;;3.58;;
15240;SDS011;7723;52.170;9.978;2023-04-25T04:33:12;11.55;;;3.25;;
15240;SDS011;7723;52.170;9.978;2023-04-25T04:35:40;8.82;;;3.50;;
15240;SDS011;7723;52.170;9.978;2023-04-25T04:38:08;14.35;;;3.83;;
15240;SDS011;7723;52.170;9.978;2023-04-25T04:40:35;8.65;;;3.17;;
15240;SDS011;7723;52.170;9.978;2023-04-25T04:43:03;12.93;;;4.13;;
15240;SDS011;7723;52.170;9.978;2023-04-25T04:45:30;12.75;;;3.97;;
15240;SDS011;7723;52.170;9.978;2023-04-25T04:48:00;13.38;;;3.67;;
15240;SDS011;7723;52.170;9.978;2023-04-25T04:50:27;8.27;;;4.03;;
15240;SDS011;7723;52.170;9.978;2023-04-25T04:52:54;7.97;;;3.38;;
15240;SDS011;7723;52.170;9.978;2023-04-25T04:55:21;11.88;;;3.80;;
15240;SDS011;7723;52.170;9.978;2023-04-25T04:57:48;14.40;;;3.97;;
15240;SDS011;7723;52.170;9.978;2023-04-25T05:00:15;16.00;;;4.30;;
15240;SDS011;7723;52.170;9.978;2023-04-25T05:02:43;10.70;;;4.35;;
15240;SDS011;7723;52.170;9.978;2023-04-25T05:05:11;12.93;;;3.38;;
15240;SDS011;7723;52.170;9.978;2023-04-25T05:07:38;11.95;;;3.72;;
15240;SDS011;7723;52.170;9.978;2023-04-25T05:10:06;15.13;;;4.97;;
15240;SDS011;7723;52.170;9.978;2023-04-25T05:12:34;11.18;;;3.60;;
15240;SDS011;7723;52.170;9.978;2023-04-25T05:15:01;7.68;;;3.10;;
15240;SDS011;7723;52.170;9.978;2023-04-25T05:17:28;15.05;;;4.38;;
15240;SDS011;7723;52.170;9.978;2023-04-25T05:19:56;14.02;;;3.83;;
15240;SDS011;7723;52.170;9.978;2023-04-25T05:22:24;14.38;;;3.78;;
15240;SDS011;7723;52.170;9.978;2023-04-25T05:24:51;15.43;;;6.03;;
15240;SDS011;7723;52.170;9.978;2023-04-25T05:27:19;13.05;;;3.67;;
15240;SDS011;7723;52.170;9.978;2023-04-25T05:29:46;15.95;;;3.60;;
15240;SDS011;7723;52.170;9.978;2023-04-25T05:32:13;18.90;;;4.68;;
15240;SDS011;7723;52.170;9.978;2023-04-25T05:34:40;13.38;;;3.55;;
15240;SDS011;7723;52.170;9.978;2023-04-25T05:37:08;9.35;;;4.10;;
15240;SDS011;7723;52.170;9.978;2023-04-25T05:39:36;11.82;;;3.58;;
15240;SDS011;7723;52.170;9.978;2023-04-25T05:42:03;10.25;;;3.78;;
15240;SDS011;7723;52.170;9.978;2023-04-25T05:44:30;12.88;;;3.30;;
15240;SDS011;7723;52.170;9.978;2023-04-25T05:46:57;14.05;;;3.42;;
15240;SDS011;7723;52.170;9.978;2023-04-25T05:49:25;16.13;;;3.67;;
15240;SDS011;7723;52.170;9.978;2023-04-25T05:51:52;16.02;;;4.03;;
15240;SDS011;7723;52.170;9.978;2023-04-25T05:54:19;12.20;;;3.25;;
15240;SDS011;7723;52.170;9.978;2023-04-25T05:56:48;9.70;;;3.53;;
15240;SDS011;7723;52.170;9.978;2023-04-25T05:59:15;9.65;;;2.88;;
15240;SDS011;7723;52.170;9.978;2023-04-25T06:01:42;8.27;;;3.22;;
15240;SDS011;7723;52.170;9.978;2023-04-25T06:04:09;13.38;;;2.88;;
15240;SDS011;7723;52.170;9.978;2023-04-25T06:06:36;12.02;;;4.35;;
15240;SDS011;7723;52.170;9.978;2023-04-25T06:09:03;13.60;;;4.90;;
15240;SDS011;7723;52.170;9.978;2023-04-25T06:11:30;10.05;;;2.85;;
15240;SDS011;7723;52.170;9.978;2023-04-25T06:13:58;8.27;;;2.95;;
15240;SDS011;7723;52.170;9.978;2023-04-25T06:16:26;11.10;;;2.85;;
15240;SDS011;7723;52.170;9.978;2023-04-25T06:18:53;12.73;;;3.28;;
15240;SDS011;7723;52.170;9.978;2023-04-25T06:21:20;19.65;;;4.07;;
15240;SDS011;7723;52.170;9.978;2023-04-25T06:23:47;10.02;;;3.15;;
15240;SDS011;7723;52.170;9.978;2023-04-25T06:26:14;10.38;;;2.67;;
15240;SDS011;7723;52.170;9.978;2023-04-25T06:28:41;11.43;;;3.35;;
15240;SDS011;7723;52.170;9.978;2023-04-25T06:31:09;11.98;;;3.30;;
15240;SDS011;7723;52.170;9.978;2023-04-25T06:33:36;8.23;;;3.00;;
15240;SDS011;7723;52.170;9.978;2023-04-25T06:36:04;11.55;;;3.17;;
15240;SDS011;7723;52.170;9.978;2023-04-25T06:38:31;10.30;;;3.17;;
15240;SDS011;7723;52.170;9.978;2023-04-25T06:40:59;8.50;;;2.75;;
15240;SDS011;7723;52.170;9.978;2023-04-25T06:43:27;10.65;;;2.63;;
15240;SDS011;7723;52.170;9.978;2023-04-25T06:45:58;7.63;;;2.70;;
15240;SDS011;7723;52.170;9.978;2023-04-25T06:48:26;11.75;;;3.45;;
15240;SDS011;7723;52.170;9.978;2023-04-25T06:50:54;9.05;;;2.95;;
15240;SDS011;7723;52.170;9.978;2023-04-25T06:53:21;9.45;;;2.63;;
15240;SDS011;7723;52.170;9.978;2023-04-25T06:55:48;15.27;;;3.85;;
15240;SDS011;7723;52.170;9.978;2023-04-25T06:58:16;13.32;;;3.05;;
15240;SDS011;7723;52.170;9.978;2023-04-25T07:00:43;11.23;;;2.65;;
15240;SDS011;7723;52.170;9.978;2023-04-25T07:03:10;9.85;;;2.47;;
15240;SDS011;7723;52.170;9.978;2023-04-25T07:05:39;8.57;;;2.00;;
15240;SDS011;7723;52.170;9.978;2023-04-25T07:08:06;9.48;;;3.08;;
15240;SDS011;7723;52.170;9.978;2023-04-25T07:10:33;12.05;;;2.80;;
15240;SDS011;7723;52.170;9.978;2023-04-25T07:13:00;10.43;;;2.53;;
15240;SDS011;7723;52.170;9.978;2023-04-25T07:15:27;5.35;;;2.28;;
15240;SDS011;7723;52.170;9.978;2023-04-25T07:17:54;7.35;;;2.25;;
15240;SDS011;7723;52.170;9.978;2023-04-25T07:20:21;8.15;;;2.13;;
15240;SDS011;7723;52.170;9.978;2023-04-25T07:22:50;3.00;;;1.67;;
15240;SDS011;7723;52.170;9.978;2023-04-25T07:25:17;8.88;;;2.05;;
15240;SDS011;7723;52.170;9.978;2023-04-25T07:27:44;9.25;;;2.22;;
15240;SDS011;7723;52.170;9.978;2023-04-25T07:30:11;9.13;;;1.80;;
15240;SDS011;7723;52.170;9.978;2023-04-25T07:32:39;8.45;;;2.05;;
15240;SDS011;7723;52.170;9.978;2023-04-25T07:35:06;3.95;;;1.42;;
15240;SDS011;7723;52.170;9.978;2023-04-25T07:37:34;6.03;;;1.80;;
15240;SDS011;7723;52.170;9.978;2023-04-25T07:40:03;6.60;;;1.95;;
15240;SDS011;7723;52.170;9.978;2023-04-25T07:42:32;7.75;;;1.95;;
15240;SDS011;7723;52.170;9.978;2023-04-25T07:44:59;7.60;;;1.67;;
15240;SDS011;7723;52.170;9.978;2023-04-25T07:47:27;8.73;;;2.20;;
15240;SDS011;7723;52.170;9.978;2023-04-25T07:49:54;6.35;;;1.85;;
15240;SDS011;7723;52.170;9.978;2023-04-25T07:52:22;7.00;;;2.80;;
15240;SDS011;7723;52.170;9.978;2023-04-25T07:54:50;8.20;;;1.92;;
15240;SDS011;7723;52.170;9.978;2023-04-25T07:57:18;5.10;;;2.47;;
15240;SDS011;7723;52.170;9.978;2023-04-25T07:59:45;8.65;;;1.83;;
15240;SDS011;7723;52.170;9.978;2023-04-25T08:02:12;8.00;;;1.60;;
15240;SDS011;7723;52.170;9.978;2023-04-25T08:04:39;5.55;;;1.52;;
15240;SDS011;7723;52.170;9.978;2023-04-25T08:07:06;6.32;;;2.33;;
15240;SDS011;7723;52.170;9.978;2023-04-25T08:09:34;9.43;;;2.03;;
15240;SDS011;7723;52.170;9.978;2023-04-25T08:12:01;4.68;;;2.17;;
15240;SDS011;7723;52.170;9.978;2023-04-25T08:14:30;8.50;;;3.20;;
15240;SDS011;7723;52.170;9.978;2023-04-25T08:17:01;8.38;;;2.65;;
15240;SDS011;7723;52.170;9.978;2023-04-25T08:19:28;5.93;;;2.40;;
15240;SDS011;7723;52.170;9.978;2023-04-25T08:21:56;9.05;;;2.40;;
15240;SDS011;7723;52.170;9.978;2023-04-25T08:24:23;6.28;;;1.90;;
15240;SDS011;7723;52.170;9.978;2023-04-25T08:26:50;9.00;;;2.17;;
15240;SDS011;7723;52.170;9.978;2023-04-25T08:29:19;5.05;;;1.98;;
15240;SDS011;7723;52.170;9.978;2023-04-25T08:31:47;7.05;;;1.70;;
15240;SDS011;7723;52.170;9.978;2023-04-25T08:34:15;11.70;;;1.73;;
15240;SDS011;7723;52.170;9.978;2023-04-25T08:36:42;6.07;;;1.83;;
15240;SDS011;7723;52.170;9.978;2023-04-25T08:39:10;4.68;;;1.50;;
15240;SDS011;7723;52.170;9.978;2023-04-25T08:41:38;7.03;;;1.63;;
15240;SDS011;7723;52.170;9.978;2023-04-25T08:44:06;2.88;;;1.20;;
15240;SDS011;7723;52.170;9.978;2023-04-25T08:46:37;7.60;;;2.08;;
15240;SDS011;7723;52.170;9.978;2023-04-25T08:49:07;3.53;;;1.25;;
15240;SDS011;7723;52.170;9.978;2023-04-25T08:51:35;5.88;;;1.70;;
15240;SDS011;7723;52.170;9.978;2023-04-25T08:54:08;5.75;;;1.52;;
15240;SDS011;7723;52.170;9.978;2023-04-25T08:56:37;4.70;;;1.30;;
15240;SDS011;7723;52.170;9.978;2023-04-25T08:59:04;3.78;;;1.77;;
15240;SDS011;7723;52.170;9.978;2023-04-25T09:01:33;4.82;;;1.60;;
15240;SDS011;7723;52.170;9.978;2023-04-25T09:04:01;5.47;;;1.75;;
15240;SDS011;7723;52.170;9.978;2023-04-25T09:06:30;6.07;;;1.48;;
15240;SDS011;7723;52.170;9.978;2023-04-25T09:09:01;4.00;;;1.40;;
15240;SDS011;7723;52.170;9.978;2023-04-25T09:11:30;4.18;;;1.27;;
15240;SDS011;7723;52.170;9.978;2023-04-25T09:14:09;3.67;;;1.50;;
15240;SDS011;7723;52.170;9.978;2023-04-25T09:16:52;4.28;;;1.35;;
15240;SDS011;7723;52.170;9.978;2023-04-25T09:19:25;3.58;;;1.80;;
15240;SDS011;7723;52.170;9.978;2023-04-25T09:21:55;6.35;;;1.23;;
15240;SDS011;7723;52.170;9.978;2023-04-25T09:24:33;5.85;;;1.50;;
15240;SDS011;7723;52.170;9.978;2023-04-25T09:27:03;4.55;;;1.70;;
15240;SDS011;7723;52.170;9.978;2023-04-25T09:29:31;3.33;;;1.30;;
15240;SDS011;7723;52.170;9.978;2023-04-25T09:32:12;6.68;;;1.35;;
15240;SDS011;7723;52.170;9.978;2023-04-25T09:34:42;3.10;;;1.80;;
15240;SDS011;7723;52.170;9.978;2023-04-25T09:37:16;8.02;;;1.65;;
15240;SDS011;7723;52.170;9.978;2023-04-25T09:39:45;4.45;;;1.35;;
15240;SDS011;7723;52.170;9.978;2023-04-25T09:42:13;3.70;;;1.67;;
15240;SDS011;7723;52.170;9.978;2023-04-25T09:44:42;4.18;;;1.30;;
15240;SDS011;7723;52.170;9.978;2023-04-25T09:47:10;2.78;;;1.58;;
15240;SDS011;7723;52.170;9.978;2023-04-25T09:49:39;5.05;;;1.30;;
15240;SDS011;7723;52.170;9.978;2023-04-25T09:52:08;3.35;;;1.30;;
15240;SDS011;7723;52.170;9.978;2023-04-25T09:54:40;6.35;;;1.40;;
15240;SDS011;7723;52.170;9.978;2023-04-25T09:57:10;5.22;;;0.98;;
15240;SDS011;7723;52.170;9.978;2023-04-25T09:59:38;4.57;;;1.33;;
15240;SDS011;7723;52.170;9.978;2023-04-25T10:02:10;2.60;;;1.25;;
15240;SDS011;7723;52.170;9.978;2023-04-25T10:04:38;4.00;;;1.55;;
15240;SDS011;7723;52.170;9.978;2023-04-25T10:07:07;4.32;;;1.38;;
15240;SDS011;7723;52.170;9.978;2023-04-25T10:09:36;3.72;;;1.40;;
15240;SDS011;7723;52.170;9.978;2023-04-25T10:12:07;3.28;;;1.70;;
15240;SDS011;7723;52.170;9.978;2023-04-25T10:14:34;3.70;;;1.20;;
15240;SDS011;7723;52.170;9.978;2023-04-25T10:17:02;3.60;;;1.30;;
15240;SDS011;7723;52.170;9.978;2023-04-25T10:19:29;5.13;;;1.38;;
15240;SDS011;7723;52.170;9.978;2023-04-25T10:22:04;5.68;;;1.10;;
15240;SDS011;7723;52.170;9.978;2023-04-25T10:24:33;3.78;;;0.90;;
15240;SDS011;7723;52.170;9.978;2023-04-25T10:27:02;2.45;;;1.10;;
15240;SDS011;7723;52.170;9.978;2023-04-25T10:29:30;4.00;;;1.10;;
15240;SDS011;7723;52.170;9.978;2023-04-25T10:31:57;4.60;;;1.50;;
15240;SDS011;7723;52.170;9.978;2023-04-25T10:34:37;11.55;;;1.50;;
15240;SDS011;7723;52.170;9.978;2023-04-25T10:37:08;6.65;;;1.00;;
15240;SDS011;7723;52.170;9.978;2023-04-25T10:39:37;2.70;;;1.23;;
15240;SDS011;7723;52.170;9.978;2023-04-25T10:42:06;6.60;;;1.45;;
15240;SDS011;7723;52.170;9.978;2023-04-25T10:44:36;3.95;;;1.30;;
15240;SDS011;7723;52.170;9.978;2023-04-25T10:47:06;7.80;;;1.65;;
15240;SDS011;7723;52.170;9.978;2023-04-25T10:49:34;3.63;;;1.33;;
15240;SDS011;7723;52.170;9.978;2023-04-25T10:52:13;3.17;;;1.10;;
15240;SDS011;7723;52.170;9.978;2023-04-25T10:54:46;2.30;;;1.15;;
15240;SDS011;7723;52.170;9.978;2023-04-25T10:57:36;3.10;;;1.10;;
15240;SDS011;7723;52.170;9.978;2023-04-25T11:00:07;4.43;;;1.30;;
15240;SDS011;7723;52.170;9.978;2023-04-25T11:02:42;4.78;;;1.30;;
15240;SDS011;7723;52.170;9.978;2023-04-25T11:05:17;4.22;;;1.20;;
15240;SDS011;7723;52.170;9.978;2023-04-25T11:07:52;4.20;;;1.40;;
15240;SDS011;7723;52.170;9.978;2023-04-25T11:10:25;6.15;;;1.48;;
15240;SDS011;7723;52.170;9.978;2023-04-25T11:12:52;4.57;;;1.55;;
15240;SDS011;7723;52.170;9.978;2023-04-25T11:15:21;7.22;;;1.35;;
15240;SDS011;7723;52.170;9.978;2023-04-25T11:17:48;3.50;;;1.42;;
15240;SDS011;7723;52.170;9.978;2023-04-25T11:20:17;3.38;;;1.38;;
15240;SDS011;7723;52.170;9.978;2023-04-25T11:22:45;4.47;;;1.65;;
15240;SDS011;7723;52.170;9.978;2023-04-25T11:25:13;3.05;;;1.15;;
15240;SDS011;7723;52.170;9.978;2023-04-25T11:27:50;3.88;;;1.23;;
15240;SDS011;7723;52.170;9.978;2023-04-25T11:30:18;4.70;;;1.50;;
15240;SDS011;7723;52.170;9.978;2023-04-25T11:32:48;2.33;;;1.23;;
15240;SDS011;7723;52.170;9.978;2023-04-25T11:35:15;5.13;;;2.00;;
15240;SDS011;7723;52.170;9.978;2023-04-25T11:37:43;3.47;;;1.10;;
15240;SDS011;7723;52.170;9.978;2023-04-25T11:40:10;5.65;;;1.40;;
15240;SDS011;7723;52.170;9.978;2023-04-25T11:42:38;6.95;;;1.67;;
15240;SDS011;7723;52.170;9.978;2023-04-25T11:45:06;5.03;;;2.33;;
15240;SDS011;7723;52.170;9.978;2023-04-25T11:47:36;4.65;;;1.38;;
15240;SDS011;7723;52.170;9.978;2023-04-25T11:50:05;4.90;;;1.55;;
15240;SDS011;7723;52.170;9.978;2023-04-25T11:52:37;6.55;;;1.50;;
15240;SDS011;7723;52.170;9.978;2023-04-25T11:55:05;5.45;;;1.42;;
15240;SDS011;7723;52.170;9.978;2023-04-25T11:57:34;7.40;;;1.27;;
15240;SDS011;7723;52.170;9.978;2023-04-25T12:00:05;2.47;;;1.00;;
15240;SDS011;7723;52.170;9.978;2023-04-25T12:02:42;1.70;;;0.77;;
15240;SDS011;7723;52.170;9.978;2023-04-25T12:05:10;1.98;;;1.30;;
15240;SDS011;7723;52.170;9.978;2023-04-25T12:07:38;4.03;;;1.40;;
15240;SDS011;7723;52.170;9.978;2023-04-25T12:10:06;6.38;;;2.45;;
15240;SDS011;7723;52.170;9.978;2023-04-25T12:12:35;3.90;;;1.30;;
15240;SDS011;7723;52.170;9.978;2023-04-25T12:15:10;2.80;;;1.08;;
15240;SDS011;7723;52.170;9.978;2023-04-25T12:17:41;6.53;;;1.20;;
15240;SDS011;7723;52.170;9.978;2023-04-25T12:20:12;2.70;;;1.15;;
15240;SDS011;7723;52.170;9.978;2023-04-25T12:22:40;5.25;;;1.42;;
15240;SDS011;7723;52.170;9.978;2023-04-25T12:25:10;4.40;;;0.85;;
15240;SDS011;7723;52.170;9.978;2023-04-25T12:27:38;3.25;;;1.00;;
15240;SDS011;7723;52.170;9.978;2023-04-25T12:30:07;3.13;;;1.40;;
15240;SDS011;7723;52.170;9.978;2023-04-25T12:32:35;2.58;;;1.45;;
15240;SDS011;7723;52.170;9.978;2023-04-25T12:35:05;5.80;;;1.77;;
15240;SDS011;7723;52.170;9.978;2023-04-25T12:37:34;3.50;;;1.38;;
15240;SDS011;7723;52.170;9.978;2023-04-25T12:40:02;3.08;;;1.17;;
15240;SDS011;7723;52.170;9.978;2023-04-25T12:42:31;6.18;;;2.25;;
15240;SDS011;7723;52.170;9.978;2023-04-25T12:44:58;1.30;;;1.00;;
15240;SDS011;7723;52.170;9.978;2023-04-25T12:47:26;4.10;;;2.25;;
15240;SDS011;7723;52.170;9.978;2023-04-25T12:49:53;4.95;;;1.30;;
15240;SDS011;7723;52.170;9.978;2023-04-25T12:52:21;2.65;;;1.30;;
15240;SDS011;7723;52.170;9.978;2023-04-25T12:54:48;4.10;;;1.00;;
15240;SDS011;7723;52.170;9.978;2023-04-25T12:57:15;6.35;;;1.17;;
15240;SDS011;7723;52.170;9.978;2023-04-25T12:59:42;4.20;;;1.13;;
15240;SDS011;7723;52.170;9.978;2023-04-25T13:02:09;1.83;;;0.98;;
15240;SDS011;7723;52.170;9.978;2023-04-25T13:04:36;1.92;;;0.85;;
15240;SDS011;7723;52.170;9.978;2023-04-25T13:07:03;4.70;;;0.85;;
15240;SDS011;7723;52.170;9.978;2023-04-25T13:09:32;1.80;;;0.82;;
15240;SDS011;7723;52.170;9.978;2023-04-25T13:11:59;5.60;;;0.80;;
15240;SDS011;7723;52.170;9.978;2023-04-25T13:14:26;1.63;;;0.70;;
15240;SDS011;7723;52.170;9.978;2023-04-25T13:16:54;2.67;;;0.95;;
15240;SDS011;7723;52.170;9.978;2023-04-25T13:19:21;2.53;;;0.80;;
15240;SDS011;7723;52.170;9.978;2023-04-25T13:21:48;3.20;;;1.08;;
15240;SDS011;7723;52.170;9.978;2023-04-25T13:24:15;4.60;;;0.80;;
15240;SDS011;7723;52.170;9.978;2023-04-25T13:26:43;2.17;;;0.77;;
15240;SDS011;7723;52.170;9.978;2023-04-25T13:29:10;3.13;;;1.17;;
15240;SDS011;7723;52.170;9.978;2023-04-25T13:31:37;1.83;;;0.82;;
15240;SDS011;7723;52.170;9.978;2023-04-25T13:34:05;1.60;;;0.70;;
15240;SDS011;7723;52.170;9.978;2023-04-25T13:36:32;4.63;;;1.20;;
15240;SDS011;7723;52.170;9.978;2023-04-25T13:38:59;1.48;;;0.77;;
15240;SDS011;7723;52.170;9.978;2023-04-25T13:41:26;5.03;;;0.93;;
15240;SDS011;7723;52.170;9.978;2023-04-25T13:43:54;4.13;;;1.17;;
15240;SDS011;7723;52.170;9.978;2023-04-25T13:46:21;4.00;;;1.00;;
15240;SDS011;7723;52.170;9.978;2023-04-25T13:48:48;1.77;;;1.00;;
15240;SDS011;7723;52.170;9.978;2023-04-25T13:51:15;4.65;;;1.13;;
15240;SDS011;7723;52.170;9.978;2023-04-25T13:53:43;3.22;;;1.00;;
15240;SDS011;7723;52.170;9.978;2023-04-25T13:56:11;2.83;;;1.45;;
15240;SDS011;7723;52.170;9.978;2023-04-25T13:58:38;2.92;;;1.10;;
15240;SDS011;7723;52.170;9.978;2023-04-25T14:01:07;2.45;;;1.05;;
15240;SDS011;7723;52.170;9.978;2023-04-25T14:03:34;3.80;;;0.85;;
15240;SDS011;7723;52.170;9.978;2023-04-25T14:06:01;4.07;;;0.98;;
15240;SDS011;7723;52.170;9.978;2023-04-25T14:08:29;2.80;;;1.10;;
15240;SDS011;7723;52.170;9.978;2023-04-25T14:10:56;4.55;;;0.90;;
15240;SDS011;7723;52.170;9.978;2023-04-25T14:13:23;3.72;;;1.10;;
15240;SDS011;7723;52.170;9.978;2023-04-25T14:15:50;2.83;;;1.10;;
15240;SDS011;7723;52.170;9.978;2023-04-25T14:18:19;1.70;;;0.90;;
15240;SDS011;7723;52.170;9.978;2023-04-25T14:20:46;2.08;;;0.98;;
15240;SDS011;7723;52.170;9.978;2023-04-25T14:23:14;2.58;;;0.90;;
15240;SDS011;7723;52.170;9.978;2023-04-25T14:25:42;2.80;;;0.98;;
15240;SDS011;7723;52.170;9.978;2023-04-25T14:28:10;1.77;;;0.90;;
15240;SDS011;7723;52.170;9.978;2023-04-25T14:30:37;3.83;;;1.17;;
15240;SDS011;7723;52.170;9.978;2023-04-25T14:33:04;1.90;;;1.00;;
15240;SDS011;7723;52.170;9.978;2023-04-25T14:35:32;2.88;;;1.10;;
15240;SDS011;7723;52.170;9.978;2023-04-25T14:37:59;2.03;;;0.90;;
15240;SDS011;7723;52.170;9.978;2023-04-25T14:40:26;2.20;;;1.35;;
15240;SDS011;7723;52.170;9.978;2023-04-25T14:42:54;4.35;;;1.45;;
15240;SDS011;7723;52.170;9.978;2023-04-25T14:45:21;2.25;;;0.80;;
15240;SDS011;7723;52.170;9.978;2023-04-25T14:47:49;5.65;;;1.05;;
15240;SDS011;7723;52.170;9.978;2023-04-25T14:50:16;1.95;;;1.00;;
15240;SDS011;7723;52.170;9.978;2023-04-25T14:52:45;2.58;;;1.10;;
15240;SDS011;7723;52.170;9.978;2023-04-25T14:55:12;3.45;;;1.27;;
15240;SDS011;7723;52.170;9.978;2023-04-25T14:57:39;1.83;;;1.08;;
15240;SDS011;7723;52.170;9.978;2023-04-25T15:00:06;3.25;;;1.35;;
15240;SDS011;7723;52.170;9.978;2023-04-25T15:02:35;3.00;;;1.35;;